Time;durP1;ratioP1;P1;durP2;ratioP2;P2;SDS_P1;SDS_P2;PMS_P1;PMS_P2;Temp;Humidity;BMP_temperature;BMP_pressure;BME280_temperature;BME280_humidity;BME280_pressure;Samples;Min_cycle;Max_cycle;Signal;HPM_P1;HPM_P2
2023/03/28 00:03:56;;;;;;;4.30;1.70;;;2.70;99.90;;;;;;10315039;28;20228;-70
2023/03/28 00:08:56;;;;;;;5.87;2.03;;;2.60;99.90;;;;;;10321049;28;20222;-73
2023/03/28 00:14:02;;;;;;;4.60;1.73;;;2.60;99.90;;;;;;10321394;28;20218;-75
2023/03/28 00:19:06;;;;;;;4.33;1.93;;;2.60;99.90;;;;;;10325054;28;20229;-71
2023/03/28 00:24:12;;;;;;;3.93;1.57;;;2.60;99.90;;;;;;10310495;28;20626;-73
2023/03/28 00:29:15;;;;;;;6.57;1.63;;;2.50;99.90;;;;;;10310853;28;20697;-72
2023/03/28 00:34:16;;;;;;;5.57;1.70;;;2.50;99.90;;;;;;10317204;28;20221;-72
2023/03/28 00:39:16;;;;;;;4.80;1.60;;;2.40;99.90;;;;;;10317019;28;20232;-71
2023/03/28 00:44:50;;;;;;;6.07;1.73;;;2.40;99.90;;;;;;10310263;28;20218;-71
2023/03/28 00:50:04;;;;;;;4.80;1.70;;;2.30;99.90;;;;;;10309125;28;20244;-71
2023/03/28 00:55:09;;;;;;;4.37;2.00;;;2.20;99.90;;;;;;10316295;28;20215;-71
2023/03/28 01:00:15;;;;;;;3.60;1.67;;;2.20;99.90;;;;;;10325788;28;20301;-69
2023/03/28 01:05:19;;;;;;;4.03;2.10;;;2.10;99.90;;;;;;10316498;28;20291;-66
2023/03/28 01:10:21;;;;;;;4.23;1.93;;;2.10;99.90;;;;;;10326093;28;20190;-67
2023/03/28 01:15:22;;;;;;;6.90;2.10;;;2.10;99.90;;;;;;10309268;28;20190;-65
2023/03/28 01:20:35;;;;;;;4.20;2.20;;;2.10;99.90;;;;;;10315540;28;20504;-65
2023/03/28 01:25:54;;;;;;;3.50;2.13;;;2.10;99.90;;;;;;10319700;28;20716;-65
2023/03/28 01:31:38;;;;;;;5.43;1.80;;;2.10;99.90;;;;;;10320197;28;20720;-66
2023/03/28 01:37:05;;;;;;;6.53;2.30;;;2.10;99.90;;;;;;10329497;28;20224;-65
2023/03/28 01:42:41;;;;;;;2.63;1.80;;;2.20;99.90;;;;;;10307550;28;20735;-65
2023/03/28 01:47:47;;;;;;;2.77;1.53;;;2.20;99.90;;;;;;10311330;28;20333;-66
2023/03/28 01:53:13;;;;;;;7.80;2.10;;;2.20;99.90;;;;;;10309672;28;20214;-67
2023/03/28 01:58:35;;;;;;;8.50;2.50;;;2.10;99.90;;;;;;10318042;28;20217;-66
2023/03/28 02:03:40;;;;;;;4.97;1.80;;;2.10;99.90;;;;;;10314224;28;20315;-65
2023/03/28 02:08:43;;;;;;;5.57;1.60;;;2.00;99.90;;;;;;10313781;28;20233;-66
2023/03/28 02:13:56;;;;;;;6.33;2.17;;;2.00;99.90;;;;;;10316199;28;20372;-67
2023/03/28 02:18:58;;;;;;;2.63;1.57;;;1.90;99.90;;;;;;10305624;28;20227;-67
2023/03/28 02:23:59;;;;;;;4.23;2.00;;;1.90;99.90;;;;;;10312080;28;20313;-68
2023/03/28 02:29:00;;;;;;;5.33;1.97;;;1.80;99.90;;;;;;10305468;28;20223;-66
2023/03/28 02:34:02;;;;;;;4.47;1.77;;;1.80;99.90;;;;;;10312200;28;20224;-67
2023/03/28 02:39:42;;;;;;;7.10;2.03;;;1.70;99.90;;;;;;10305716;28;20226;-68
2023/03/28 02:44:43;;;;;;;2.87;1.60;;;1.70;99.90;;;;;;10316261;28;20226;-67
2023/03/28 02:49:51;;;;;;;6.27;1.83;;;1.60;99.90;;;;;;10307765;28;20222;-67
2023/03/28 02:55:00;;;;;;;7.70;2.20;;;1.60;99.90;;;;;;10306688;28;20803;-66
2023/03/28 03:00:12;;;;;;;6.57;1.87;;;1.60;99.90;;;;;;10311880;28;20230;-66
2023/03/28 03:05:13;;;;;;;5.07;1.77;;;1.60;99.90;;;;;;10303559;28;20300;-65
2023/03/28 03:10:15;;;;;;;6.43;2.30;;;1.60;99.90;;;;;;10322094;28;20192;-66
2023/03/28 03:15:16;;;;;;;6.33;2.10;;;1.60;99.90;;;;;;10303388;28;20241;-65
2023/03/28 03:20:17;;;;;;;6.10;2.53;;;1.60;99.90;;;;;;10320922;28;20277;-65
2023/03/28 03:25:18;;;;;;;6.00;2.27;;;1.50;99.90;;;;;;10318926;28;20186;-65
2023/03/28 03:30:19;;;;;;;5.27;2.20;;;1.50;99.90;;;;;;10310956;28;20277;-66
2023/03/28 03:35:19;;;;;;;5.43;2.87;;;1.50;99.90;;;;;;10309437;28;20190;-67
2023/03/28 03:40:20;;;;;;;6.73;2.30;;;1.40;99.90;;;;;;10302013;28;20732;-65
2023/03/28 03:45:21;;;;;;;7.07;2.90;;;1.40;99.90;;;;;;10310731;28;20206;-67
2023/03/28 03:50:21;;;;;;;6.03;2.10;;;1.40;99.90;;;;;;10308900;28;20695;-68
2023/03/28 03:55:22;;;;;;;6.37;1.90;;;1.30;99.90;;;;;;10310601;28;20195;-68
2023/03/28 04:00:22;;;;;;;4.53;1.80;;;1.30;99.90;;;;;;10308528;28;20210;-67
2023/03/28 04:05:23;;;;;;;7.23;2.30;;;1.20;99.90;;;;;;10321240;28;20199;-66
2023/03/28 04:10:24;;;;;;;5.80;2.13;;;1.20;99.90;;;;;;10311839;28;20221;-67
2023/03/28 04:15:25;;;;;;;5.97;2.07;;;1.20;99.90;;;;;;10307726;28;20221;-68
2023/03/28 04:20:28;;;;;;;4.50;2.07;;;1.10;99.90;;;;;;10303634;28;20227;-66
2023/03/28 04:25:30;;;;;;;7.17;2.10;;;1.10;99.90;;;;;;10315974;28;20211;-67
2023/03/28 04:30:32;;;;;;;9.70;2.40;;;1.10;99.90;;;;;;10306719;28;20214;-65
2023/03/28 04:35:35;;;;;;;4.37;2.00;;;1.10;99.90;;;;;;10304228;28;20229;-69
2023/03/28 04:40:38;;;;;;;4.30;2.50;;;1.10;99.90;;;;;;10305992;28;20227;-68
2023/03/28 04:45:39;;;;;;;5.43;2.60;;;1.10;99.90;;;;;;10305801;28;20217;-69
2023/03/28 04:50:39;;;;;;;5.70;2.87;;;1.00;99.90;;;;;;10307138;28;20269;-69
2023/03/28 04:55:42;;;;;;;21.13;9.20;;;1.00;99.90;;;;;;10312276;28;20305;-69
2023/03/28 05:00:44;;;;;;;46.73;18.43;;;1.00;99.90;;;;;;10308748;28;20240;-69
2023/03/28 05:05:51;;;;;;;14.93;6.50;;;1.00;99.90;;;;;;10318481;28;20280;-69
2023/03/28 05:10:51;;;;;;;42.50;18.47;;;1.00;99.90;;;;;;10317307;28;20608;-69
2023/03/28 05:15:52;;;;;;;46.60;18.50;;;1.00;99.90;;;;;;10326405;28;20293;-69
2023/03/28 05:20:52;;;;;;;75.80;25.43;;;0.90;99.90;;;;;;10327190;28;20238;-66
2023/03/28 05:25:54;;;;;;;56.43;22.87;;;1.00;99.90;;;;;;10312895;28;20222;-65
2023/03/28 05:30:55;;;;;;;12.83;6.17;;;1.10;99.90;;;;;;10314041;28;20222;-68
2023/03/28 05:35:55;;;;;;;15.77;7.37;;;1.10;99.90;;;;;;10313299;28;20230;-65
2023/03/28 05:40:57;;;;;;;13.10;6.57;;;1.20;99.90;;;;;;10307920;28;20277;-69
2023/03/28 05:45:57;;;;;;;8.40;4.10;;;1.20;99.90;;;;;;10319292;28;20317;-68
2023/03/28 05:50:58;;;;;;;8.93;3.77;;;1.30;99.90;;;;;;10314421;28;20392;-67
2023/03/28 05:55:58;;;;;;;7.90;3.70;;;1.60;99.90;;;;;;10305674;28;20221;-68
2023/03/28 06:01:01;;;;;;;9.03;3.23;;;1.70;99.90;;;;;;10311341;28;20226;-73
2023/03/28 06:06:03;;;;;;;9.60;3.13;;;1.90;99.90;;;;;;10319476;28;20221;-69
2023/03/28 06:11:04;;;;;;;6.97;3.03;;;2.10;99.90;;;;;;10321463;28;20703;-69
2023/03/28 06:16:05;;;;;;;5.97;2.73;;;2.30;99.90;;;;;;10317954;28;20233;-69
2023/03/28 06:21:06;;;;;;;6.57;3.13;;;2.40;99.90;;;;;;10319578;28;20244;-70
2023/03/28 06:26:07;;;;;;;7.73;2.83;;;2.60;99.90;;;;;;10316413;28;20237;-69
2023/03/28 06:31:10;;;;;;;7.20;2.77;;;2.90;99.90;;;;;;10317813;28;20230;-68
2023/03/28 06:36:11;;;;;;;6.27;2.30;;;3.30;99.90;;;;;;10304650;28;20694;-69
2023/03/28 06:41:11;;;;;;;4.80;2.40;;;3.50;99.90;;;;;;10320196;28;20256;-69
2023/03/28 06:46:14;;;;;;;4.17;2.20;;;3.70;99.90;;;;;;10312912;28;20232;-69
2023/03/28 06:51:15;;;;;;;5.67;2.17;;;4.00;99.90;;;;;;10305186;28;20281;-69
2023/03/28 06:56:16;;;;;;;4.77;2.27;;;4.50;99.90;;;;;;10315639;28;20850;-69
2023/03/28 07:01:16;;;;;;;6.83;2.40;;;4.90;99.90;;;;;;10316818;28;20241;-69
2023/03/28 07:06:17;;;;;;;8.53;2.20;;;5.00;99.90;;;;;;10310743;28;20222;-69
2023/03/28 07:11:18;;;;;;;6.27;2.20;;;5.10;99.90;;;;;;10325799;28;20220;-69
2023/03/28 07:16:19;;;;;;;6.70;2.10;;;5.70;99.90;;;;;;10317924;28;20217;-69
2023/03/28 07:21:20;;;;;;;7.20;3.00;;;6.10;99.90;;;;;;10324695;28;20598;-69
2023/03/28 07:26:20;;;;;;;6.03;2.53;;;6.30;99.90;;;;;;10324423;28;20273;-70
2023/03/28 07:31:24;;;;;;;8.43;2.57;;;6.20;99.90;;;;;;10325047;28;20220;-69
2023/03/28 07:36:26;;;;;;;4.93;2.07;;;6.20;99.90;;;;;;10320862;28;20229;-68
2023/03/28 07:41:27;;;;;;;6.57;2.10;;;6.30;99.90;;;;;;10324098;28;20270;-68
2023/03/28 07:46:27;;;;;;;5.70;2.20;;;6.40;99.90;;;;;;10321507;28;20673;-70
2023/03/28 07:51:28;;;;;;;7.93;2.00;;;6.60;99.90;;;;;;10309679;28;20214;-68
2023/03/28 07:56:29;;;;;;;8.60;2.50;;;9.10;99.90;;;;;;10321241;28;20226;-68
2023/03/28 08:01:31;;;;;;;8.43;2.30;;;14.30;98.30;;;;;;10331633;28;20230;-67
2023/03/28 08:06:32;;;;;;;8.97;2.10;;;18.10;68.70;;;;;;10320157;28;20264;-68
2023/03/28 08:11:37;;;;;;;5.17;2.10;;;20.60;54.30;;;;;;10320923;28;20214;-68
2023/03/28 08:16:38;;;;;;;9.60;2.53;;;22.40;47.90;;;;;;10323192;28;20237;-69
2023/03/28 08:21:39;;;;;;;5.73;2.37;;;23.20;42.70;;;;;;10320492;28;20337;-68
2023/03/28 08:26:40;;;;;;;9.00;3.10;;;23.00;42.50;;;;;;10322549;28;20580;-68
2023/03/28 08:31:41;;;;;;;6.47;2.50;;;23.60;40.30;;;;;;10331022;28;20228;-68
2023/03/28 08:36:42;;;;;;;5.47;2.50;;;24.40;39.40;;;;;;10329248;28;20236;-69
2023/03/28 08:42:04;;;;;;;7.63;2.57;;;25.50;37.00;;;;;;10328646;28;20244;-68
2023/03/28 08:47:13;;;;;;;6.73;2.50;;;26.50;34.60;;;;;;10325868;28;20222;-69
2023/03/28 08:52:17;;;;;;;6.17;2.40;;;26.50;34.30;;;;;;10325483;28;20221;-68
2023/03/28 08:57:26;;;;;;;8.20;2.60;;;27.10;33.50;;;;;;10328217;28;20248;-69
2023/03/28 09:02:28;;;;;;;5.33;2.50;;;28.00;32.10;;;;;;10329717;28;20325;-68
2023/03/28 09:07:38;;;;;;;4.43;2.43;;;27.10;32.80;;;;;;10323890;28;20256;-68
2023/03/28 09:12:46;;;;;;;6.57;2.40;;;27.70;31.80;;;;;;10335433;28;20295;-68
2023/03/28 09:18:23;;;;;;;6.97;2.53;;;28.00;30.60;;;;;;10331486;28;20217;-68
2023/03/28 09:23:56;;;;;;;5.27;2.73;;;28.20;30.50;;;;;;10359764;28;20389;-69
2023/03/28 09:29:09;;;;;;;10.23;2.93;;;25.10;32.80;;;;;;10326082;28;20321;-69
2023/03/28 09:34:37;;;;;;;14.00;2.73;;;25.70;32.70;;;;;;10327481;28;20569;-69
2023/03/28 09:39:51;;;;;;;5.60;2.30;;;26.30;31.20;;;;;;10323474;28;20809;-68
2023/03/28 09:45:17;;;;;;;7.93;2.73;;;26.90;30.70;;;;;;10328133;28;20256;-69
2023/03/28 09:50:19;;;;;;;7.20;2.73;;;27.40;29.50;;;;;;10327524;28;20312;-68
2023/03/28 09:55:22;;;;;;;5.53;2.10;;;28.80;28.90;;;;;;10328395;28;20205;-68
2023/03/28 10:00:22;;;;;;;6.33;2.53;;;28.70;28.40;;;;;;10328346;28;20209;-70
2023/03/28 10:05:33;;;;;;;5.53;2.30;;;28.80;28.60;;;;;;10324586;28;20200;-68
2023/03/28 10:10:34;;;;;;;7.83;2.83;;;29.20;27.70;;;;;;10322199;28;20307;-69
2023/03/28 10:15:46;;;;;;;6.27;2.70;;;29.30;28.00;;;;;;10327387;28;20230;-68
2023/03/28 10:20:50;;;;;;;4.53;2.67;;;29.20;27.70;;;;;;10323666;28;20226;-69
2023/03/28 10:25:54;;;;;;;6.83;2.23;;;27.20;29.20;;;;;;10327990;28;20254;-67
2023/03/28 10:30:59;;;;;;;6.83;3.00;;;26.30;29.50;;;;;;10321992;28;20226;-69
2023/03/28 10:36:09;;;;;;;6.00;1.97;;;25.70;29.90;;;;;;10325681;28;20225;-67
2023/03/28 10:41:18;;;;;;;4.93;1.80;;;24.20;30.20;;;;;;10323342;28;20236;-68
2023/03/28 10:46:31;;;;;;;7.17;2.10;;;22.90;32.80;;;;;;10320332;28;20229;-67
2023/03/28 10:51:36;;;;;;;5.37;1.93;;;24.00;32.00;;;;;;10326075;28;20223;-69
2023/03/28 10:56:40;;;;;;;5.43;2.37;;;23.90;32.00;;;;;;10335006;28;20231;-67
2023/03/28 11:02:03;;;;;;;6.90;2.20;;;23.50;32.50;;;;;;10325039;28;20238;-69
2023/03/28 11:07:18;;;;;;;4.07;1.83;;;23.60;31.40;;;;;;10329873;28;20226;-68
2023/03/28 11:12:28;;;;;;;5.27;1.97;;;23.70;32.00;;;;;;10317501;28;20671;-68
2023/03/28 11:18:07;;;;;;;6.73;1.90;;;22.70;32.40;;;;;;10321645;28;20265;-68
2023/03/28 11:23:24;;;;;;;5.40;1.80;;;21.30;34.70;;;;;;10331026;28;20320;-67
2023/03/28 11:28:42;;;;;;;5.33;1.90;;;20.90;35.90;;;;;;10324085;28;20232;-67
2023/03/28 11:34:11;;;;;;;5.37;1.83;;;19.00;38.30;;;;;;10321118;28;20240;-69
2023/03/28 11:39:20;;;;;;;5.87;1.93;;;17.70;40.90;;;;;;10322076;28;20228;-67
2023/03/28 11:44:36;;;;;;;6.03;2.40;;;16.70;41.30;;;;;;10322749;28;20322;-68
2023/03/28 11:49:55;;;;;;;6.90;2.50;;;15.90;43.10;;;;;;10324564;28;20574;-69
2023/03/28 11:55:19;;;;;;;4.20;2.53;;;15.60;44.10;;;;;;10323669;28;20226;-68
2023/03/28 12:00:37;;;;;;;4.73;1.80;;;15.20;44.70;;;;;;10323172;28;20254;-68
2023/03/28 12:05:56;;;;;;;5.93;2.40;;;14.90;44.60;;;;;;10322022;28;20229;-67
2023/03/28 12:11:13;;;;;;;3.83;1.57;;;14.80;44.70;;;;;;10320775;28;20281;-67
2023/03/28 12:16:19;;;;;;;6.90;1.70;;;14.60;45.60;;;;;;10323963;28;20571;-69
2023/03/28 12:21:35;;;;;;;5.73;1.53;;;14.70;45.00;;;;;;10322300;28;20723;-69
2023/03/28 12:27:11;;;;;;;4.43;1.60;;;14.40;46.50;;;;;;10319533;28;20284;-68
2023/03/28 12:32:25;;;;;;;16.77;2.63;;;14.30;45.30;;;;;;10315106;28;20222;-69
2023/03/28 12:37:40;;;;;;;4.73;1.70;;;14.20;46.20;;;;;;10314322;28;20310;-67
2023/03/28 12:42:44;;;;;;;5.57;1.90;;;14.10;46.30;;;;;;10321939;28;20245;-70
2023/03/28 12:47:48;;;;;;;5.00;1.53;;;14.10;47.60;;;;;;10321531;28;20646;-68
2023/03/28 12:52:50;;;;;;;5.50;1.30;;;14.10;45.80;;;;;;10322530;28;20226;-68
2023/03/28 12:57:53;;;;;;;3.90;1.60;;;13.80;45.50;;;;;;10321334;28;20256;-68
2023/03/28 13:03:32;;;;;;;3.13;1.50;;;13.50;47.90;;;;;;10317203;28;20230;-69
2023/03/28 13:08:45;;;;;;;5.50;1.67;;;13.40;46.00;;;;;;10333913;28;20222;-69
2023/03/28 13:13:46;;;;;;;7.53;1.60;;;13.30;45.60;;;;;;10329169;28;20589;-69
2023/03/28 13:19:03;;;;;;;4.27;1.70;;;13.20;47.20;;;;;;10329326;28;20221;-69
2023/03/28 13:24:38;;;;;;;3.30;1.40;;;13.10;49.00;;;;;;10330219;28;20744;-68
2023/03/28 13:29:51;;;;;;;2.83;1.37;;;13.20;49.20;;;;;;10324645;28;20236;-69
2023/03/28 13:35:00;;;;;;;3.80;1.70;;;13.50;48.20;;;;;;10310754;28;20242;-68
2023/03/28 13:40:01;;;;;;;5.47;1.70;;;13.80;46.90;;;;;;10326816;28;20233;-70
2023/03/28 13:45:21;;;;;;;3.37;1.40;;;14.00;45.80;;;;;;10327785;28;20214;-68
2023/03/28 13:50:27;;;;;;;5.37;1.70;;;13.90;45.80;;;;;;10318930;28;20249;-68
2023/03/28 13:55:28;;;;;;;6.90;1.80;;;13.80;47.60;;;;;;10332912;28;20307;-69
2023/03/28 14:00:29;;;;;;;4.67;2.20;;;13.10;47.10;;;;;;10319978;28;20292;-67
2023/03/28 14:05:32;;;;;;;4.70;1.63;;;12.50;47.80;;;;;;10318000;28;20229;-69
2023/03/28 14:10:37;;;;;;;5.57;1.90;;;12.20;49.50;;;;;;10324449;28;20560;-68
2023/03/28 14:15:40;;;;;;;8.20;1.70;;;12.20;50.10;;;;;;10326871;28;20225;-68
2023/03/28 14:20:42;;;;;;;4.73;1.73;;;12.40;50.00;;;;;;10325478;28;20239;-67
2023/03/28 14:25:44;;;;;;;4.07;1.83;;;12.70;50.60;;;;;;10325490;28;20860;-67
2023/03/28 14:30:45;;;;;;;6.63;1.93;;;13.00;49.70;;;;;;10324980;28;20233;-69
2023/03/28 14:36:01;;;;;;;5.37;1.80;;;13.10;48.90;;;;;;10317303;28;20226;-66
2023/03/28 14:41:16;;;;;;;5.17;2.20;;;13.10;50.10;;;;;;10323015;28;20324;-70
2023/03/28 14:46:20;;;;;;;3.97;1.77;;;13.10;50.30;;;;;;10317609;28;20234;-69
2023/03/28 14:51:23;;;;;;;8.23;2.47;;;12.50;50.50;;;;;;10321485;28;20727;-69
2023/03/28 14:56:26;;;;;;;6.67;2.20;;;12.40;51.00;;;;;;10329658;28;20752;-70
2023/03/28 15:01:29;;;;;;;5.13;2.00;;;12.70;51.00;;;;;;10327158;28;20855;-69
2023/03/28 15:06:32;;;;;;;8.53;2.43;;;12.60;50.60;;;;;;10318512;28;20322;-68
2023/03/28 15:11:35;;;;;;;5.53;2.17;;;12.30;50.80;;;;;;10318580;28;20221;-70
2023/03/28 15:16:41;;;;;;;9.23;2.60;;;11.90;52.30;;;;;;10319808;28;20237;-68
2023/03/28 15:21:47;;;;;;;6.93;2.00;;;11.50;53.60;;;;;;10317329;28;20234;-68
2023/03/28 15:26:52;;;;;;;8.47;2.60;;;11.30;53.90;;;;;;10301550;28;20274;-70
2023/03/28 15:32:04;;;;;;;7.80;2.40;;;11.20;54.10;;;;;;10313168;28;20264;-70
2023/03/28 15:37:07;;;;;;;3.87;2.03;;;11.30;54.20;;;;;;10336053;28;20670;-69
2023/03/28 15:42:20;;;;;;;4.00;1.70;;;11.30;54.60;;;;;;10310531;28;20695;-70
2023/03/28 15:47:24;;;;;;;4.83;1.90;;;11.20;53.90;;;;;;10316887;28;20960;-69
2023/03/28 15:52:25;;;;;;;6.77;1.93;;;11.00;54.50;;;;;;10298897;28;20313;-68
2023/03/28 15:57:28;;;;;;;3.93;1.50;;;10.90;55.60;;;;;;10306104;28;20629;-69
2023/03/28 16:02:31;;;;;;;4.00;1.37;;;10.90;54.30;;;;;;10306742;28;20234;-68
2023/03/28 16:07:53;;;;;;;6.13;1.97;;;10.70;54.60;;;;;;10320459;28;20225;-70
2023/03/28 16:12:53;;;;;;;5.10;1.63;;;10.60;56.10;;;;;;10302373;28;20249;-68
2023/03/28 16:17:57;;;;;;;1.90;1.30;;;10.70;56.00;;;;;;10313345;28;20337;-69
2023/03/28 16:22:58;;;;;;;6.07;1.60;;;10.90;55.30;;;;;;10314159;28;20248;-68
2023/03/28 16:27:58;;;;;;;4.17;1.73;;;11.00;53.80;;;;;;10314710;28;20225;-69
2023/03/28 16:33:04;;;;;;;4.23;1.83;;;11.20;53.80;;;;;;10314656;28;20605;-67
2023/03/28 16:38:05;;;;;;;3.93;1.70;;;11.10;53.10;;;;;;10300496;28;20222;-69
2023/03/28 16:43:06;;;;;;;3.63;1.37;;;11.00;54.30;;;;;;10314209;28;20226;-69
2023/03/28 16:48:07;;;;;;;5.43;1.40;;;10.80;52.30;;;;;;10304393;28;20320;-68
2023/03/28 16:53:07;;;;;;;3.17;1.23;;;10.50;52.40;;;;;;10314742;28;20313;-69
2023/03/28 16:58:08;;;;;;;3.77;1.37;;;10.30;52.00;;;;;;10307626;28;20313;-68
2023/03/28 17:03:08;;;;;;;3.67;1.37;;;10.10;52.30;;;;;;10314673;28;20318;-69
2023/03/28 17:08:09;;;;;;;2.37;1.20;;;10.00;52.90;;;;;;10323791;28;20222;-68
2023/03/28 17:13:10;;;;;;;4.53;1.60;;;9.80;52.80;;;;;;10324701;28;20315;-69
2023/03/28 17:18:10;;;;;;;4.50;1.33;;;9.60;53.20;;;;;;10320979;28;20220;-68
2023/03/28 17:23:11;;;;;;;4.50;1.80;;;9.60;53.70;;;;;;10313930;28;20225;-68
2023/03/28 17:28:11;;;;;;;2.70;1.40;;;9.50;54.20;;;;;;10312771;28;20708;-69
2023/03/28 17:33:12;;;;;;;4.67;1.63;;;9.40;54.70;;;;;;10313901;28;20694;-69
2023/03/28 17:38:13;;;;;;;2.63;1.60;;;9.40;54.90;;;;;;10328399;28;20232;-70
2023/03/28 17:43:14;;;;;;;4.33;1.57;;;9.40;55.60;;;;;;10321291;28;20228;-69
2023/03/28 17:48:15;;;;;;;5.13;1.63;;;9.40;55.60;;;;;;10316740;28;20221;-68
2023/03/28 17:53:15;;;;;;;2.73;1.53;;;9.40;56.00;;;;;;10321087;28;20218;-69
2023/03/28 17:58:16;;;;;;;5.00;2.37;;;9.40;56.10;;;;;;10312094;28;20858;-68
2023/03/28 18:03:17;;;;;;;5.10;2.27;;;9.40;57.20;;;;;;10312883;28;20267;-69
2023/03/28 18:08:17;;;;;;;6.30;2.33;;;9.30;56.70;;;;;;10306024;28;20275;-70
2023/03/28 18:13:20;;;;;;;3.30;1.57;;;9.30;57.20;;;;;;10319640;28;20232;-68
2023/03/28 18:18:20;;;;;;;2.37;1.63;;;9.40;57.60;;;;;;10316617;28;20256;-68
2023/03/28 18:23:22;;;;;;;5.07;2.00;;;9.30;57.80;;;;;;10311716;28;20234;-69
2023/03/28 18:28:22;;;;;;;5.57;1.97;;;9.30;58.30;;;;;;10322831;28;20222;-69
2023/03/28 18:33:23;;;;;;;5.33;2.40;;;9.30;58.60;;;;;;10316487;28;20213;-68
2023/03/28 18:38:23;;;;;;;6.03;2.57;;;9.20;58.80;;;;;;10312365;28;20245;-68
2023/03/28 18:43:24;;;;;;;5.77;2.00;;;9.20;59.40;;;;;;10312278;28;20225;-68
2023/03/28 18:48:26;;;;;;;3.10;1.90;;;9.20;59.50;;;;;;10310330;28;20225;-66
2023/03/28 18:53:29;;;;;;;2.47;1.90;;;9.10;59.60;;;;;;10321124;28;20225;-69
2023/03/28 18:58:30;;;;;;;3.60;2.10;;;9.10;59.70;;;;;;10310301;28;20222;-69
2023/03/28 19:03:37;;;;;;;4.17;1.93;;;9.10;60.10;;;;;;10324772;28;20300;-70
2023/03/28 19:08:39;;;;;;;5.67;2.20;;;9.10;59.80;;;;;;10320319;28;20249;-69
2023/03/28 19:13:41;;;;;;;5.13;2.00;;;9.10;60.20;;;;;;10309434;28;20217;-68
2023/03/28 19:18:43;;;;;;;2.83;1.40;;;9.10;61.90;;;;;;10324934;28;21936;-69
2023/03/28 19:23:46;;;;;;;4.23;1.63;;;9.20;60.60;;;;;;10310222;28;20236;-68
2023/03/28 19:28:48;;;;;;;6.40;2.80;;;9.20;60.10;;;;;;10314309;28;20222;-69
2023/03/28 19:33:48;;;;;;;7.30;3.27;;;9.10;60.50;;;;;;10320379;28;20256;-67
2023/03/28 19:38:49;;;;;;;5.30;2.60;;;9.10;60.80;;;;;;10325584;28;20316;-69
2023/03/28 19:43:51;;;;;;;7.00;2.53;;;9.20;61.10;;;;;;10321138;28;20229;-68
2023/03/28 19:48:51;;;;;;;6.10;2.77;;;9.20;62.00;;;;;;10311155;28;20258;-73
2023/03/28 19:53:54;;;;;;;4.10;2.50;;;9.20;61.80;;;;;;10314673;28;20225;-67
2023/03/28 19:58:55;;;;;;;6.33;2.10;;;9.20;62.40;;;;;;10322884;28;20716;-68
2023/03/28 20:03:56;;;;;;;5.10;2.30;;;9.30;63.10;;;;;;10302328;28;20245;-67
2023/03/28 20:08:56;;;;;;;2.33;1.80;;;9.30;63.60;;;;;;10304595;28;20249;-69
2023/03/28 20:13:57;;;;;;;3.50;2.30;;;9.30;63.70;;;;;;10301604;28;20811;-68
2023/03/28 20:18:57;;;;;;;6.33;2.47;;;9.20;63.30;;;;;;10308195;28;20271;-67
2023/03/28 20:23:59;;;;;;;3.83;2.17;;;9.10;63.10;;;;;;10327385;28;20241;-66
2023/03/28 20:29:00;;;;;;;3.07;1.77;;;9.10;64.60;;;;;;10316944;28;20228;-65
2023/03/28 20:34:00;;;;;;;4.10;1.67;;;9.20;64.90;;;;;;10324610;28;20221;-67
2023/03/28 20:39:03;;;;;;;7.93;1.60;;;9.20;65.20;;;;;;10317333;28;20213;-66
2023/03/28 20:44:03;;;;;;;4.83;1.77;;;9.20;68.00;;;;;;10327033;28;20823;-68
2023/03/28 20:49:05;;;;;;;2.93;1.30;;;9.20;73.80;;;;;;10316843;28;20443;-66
2023/03/28 20:54:05;;;;;;;1.87;1.27;;;9.10;75.60;;;;;;10315661;28;20461;-64
2023/03/28 20:59:06;;;;;;;3.90;1.50;;;9.10;75.10;;;;;;10322169;28;20221;-67
2023/03/28 21:04:07;;;;;;;1.87;1.53;;;9.00;74.70;;;;;;10324393;28;20240;-64
2023/03/28 21:09:11;;;;;;;4.10;1.83;;;9.10;73.80;;;;;;10330726;28;20229;-65
2023/03/28 21:14:13;;;;;;;5.10;1.87;;;9.10;74.10;;;;;;10323763;28;20313;-65
2023/03/28 21:19:13;;;;;;;5.47;1.73;;;9.10;74.20;;;;;;10323427;28;20222;-67
2023/03/28 21:24:14;;;;;;;2.20;1.40;;;9.10;74.50;;;;;;10313219;28;20228;-65
2023/03/28 21:29:15;;;;;;;4.10;2.07;;;9.10;75.40;;;;;;10314987;28;20219;-65
2023/03/28 21:34:15;;;;;;;5.67;2.20;;;9.10;74.90;;;;;;10314048;28;20619;-64
2023/03/28 21:39:17;;;;;;;3.37;1.60;;;9.10;76.00;;;;;;10313976;28;20288;-65
2023/03/28 21:44:18;;;;;;;3.23;1.73;;;9.10;75.90;;;;;;10321467;28;20283;-64
2023/03/28 21:49:18;;;;;;;5.33;1.73;;;9.00;76.60;;;;;;10316648;28;20732;-65
2023/03/28 21:54:19;;;;;;;4.20;1.70;;;9.00;77.30;;;;;;10330951;28;20221;-65
2023/03/28 21:59:20;;;;;;;2.70;1.60;;;9.00;78.70;;;;;;10314193;28;20798;-65
2023/03/28 22:04:20;;;;;;;3.30;1.63;;;8.90;79.50;;;;;;10305369;28;20721;-65
2023/03/28 22:09:21;;;;;;;2.40;1.40;;;9.00;80.00;;;;;;10312440;28;20224;-67
2023/03/28 22:14:22;;;;;;;2.03;1.27;;;9.00;82.00;;;;;;10311508;28;20230;-66
2023/03/28 22:19:24;;;;;;;2.73;1.57;;;8.90;82.50;;;;;;10312492;28;20226;-66
2023/03/28 22:24:25;;;;;;;3.00;1.50;;;8.90;84.00;;;;;;10306492;28;20673;-66
2023/03/28 22:29:25;;;;;;;4.10;1.50;;;8.90;86.20;;;;;;10317832;28;20225;-65
2023/03/28 22:34:27;;;;;;;3.93;1.70;;;8.90;88.30;;;;;;10317012;28;20743;-64
2023/03/28 22:39:28;;;;;;;3.03;1.73;;;8.90;88.20;;;;;;10316537;28;20982;-64
2023/03/28 22:44:29;;;;;;;3.17;1.70;;;8.90;90.80;;;;;;10321253;28;20501;-66
2023/03/28 22:49:32;;;;;;;1.63;1.50;;;8.80;92.00;;;;;;10322554;28;20224;-64
2023/03/28 22:54:34;;;;;;;5.67;1.70;;;8.80;93.50;;;;;;10311632;28;20225;-66
2023/03/28 22:59:35;;;;;;;2.63;1.50;;;8.70;95.00;;;;;;10318174;28;20221;-67
2023/03/28 23:04:35;;;;;;;3.60;1.87;;;8.60;97.40;;;;;;10313623;28;20241;-65
2023/03/28 23:09:36;;;;;;;1.53;1.10;;;8.50;99.90;;;;;;10316463;28;20219;-65
2023/03/28 23:14:39;;;;;;;3.53;1.30;;;8.50;99.90;;;;;;10313029;28;20694;-64
2023/03/28 23:19:40;;;;;;;3.23;1.50;;;8.40;99.90;;;;;;10322483;28;20693;-65
2023/03/28 23:24:40;;;;;;;3.77;1.70;;;8.40;99.90;;;;;;10310830;28;20230;-62
2023/03/28 23:29:41;;;;;;;4.53;1.60;;;8.30;99.90;;;;;;10310283;28;20229;-65
2023/03/28 23:34:42;;;;;;;2.83;1.63;;;8.30;99.90;;;;;;10306665;28;20312;-64
2023/03/28 23:39:43;;;;;;;2.33;1.40;;;8.30;99.90;;;;;;10313491;28;20222;-65
2023/03/28 23:44:44;;;;;;;2.37;1.50;;;8.30;99.90;;;;;;10306525;28;20230;-65
2023/03/28 23:49:45;;;;;;;1.80;1.60;;;8.20;99.90;;;;;;10320108;28;20222;-66
2023/03/28 23:54:46;;;;;;;2.57;1.57;;;8.20;99.90;;;;;;10310170;28;20218;-64
2023/03/28 23:59:46;;;;;;;2.43;1.60;;;8.20;99.90;;;;;;10310779;28;20645;-64
